Madison, Virginia
Current Conditions -  °F | °C
As of 11:55 PM on Tuesday 25 Nov 2014 (Local Time) from KOMH Reporting Station
Overcast Overcast  
Wind Chill: 45°   Ceiling: 12000
Heat Index: 45°   Visibility: 10mi
Dew Point: 41°   Wind: 0mph
Humidity: 87%   Direction: NA
Pressure: 30.15"   Gusts: NA
Location:  38.38°N, 78.26°W
Report Text: KOMH 260455Z AUTO 00000KT 10SM OVC120 07/05 A3015 RMK AO2
Loading
Personal Weather Stations






























Interactive Weather Map New forecast layout! Learn more

10-Day Weather Forecast

Advertisements
Track Severe Weather on mobile